sensor_id;sensor_type;location;lat;lon;timestamp;temperature;humidity
38118;DHT22;23928;47.562;7.508;2023-09-19T00:01:33;16.70;99.90
38118;DHT22;23928;47.562;7.508;2023-09-19T00:03:59;16.60;99.90
38118;DHT22;23928;47.562;7.508;2023-09-19T00:06:29;16.50;99.90
38118;DHT22;23928;47.562;7.508;2023-09-19T00:08:57;16.40;99.90
38118;DHT22;23928;47.562;7.508;2023-09-19T00:11:24;16.40;99.90
38118;DHT22;23928;47.562;7.508;2023-09-19T00:13:51;16.40;99.90
38118;DHT22;23928;47.562;7.508;2023-09-19T00:16:17;16.40;99.90
38118;DHT22;23928;47.562;7.508;2023-09-19T00:18:44;16.30;99.90
38118;DHT22;23928;47.562;7.508;2023-09-19T00:21:10;16.30;99.90
38118;DHT22;23928;47.562;7.508;2023-09-19T00:23:35;16.30;99.90
38118;DHT22;23928;47.562;7.508;2023-09-19T00:26:01;16.20;99.90
38118;DHT22;23928;47.562;7.508;2023-09-19T00:28:27;16.20;99.90
38118;DHT22;23928;47.562;7.508;2023-09-19T00:30:53;16.10;99.90
38118;DHT22;23928;47.562;7.508;2023-09-19T00:33:22;16.00;99.90
38118;DHT22;23928;47.562;7.508;2023-09-19T00:35:48;16.00;99.90
38118;DHT22;23928;47.562;7.508;2023-09-19T00:38:14;15.90;99.90
38118;DHT22;23928;47.562;7.508;2023-09-19T00:40:45;16.00;99.90
38118;DHT22;23928;47.562;7.508;2023-09-19T00:43:11;16.00;99.90
38118;DHT22;23928;47.562;7.508;2023-09-19T00:45:37;16.00;99.90
38118;DHT22;23928;47.562;7.508;2023-09-19T00:48:07;15.90;99.90
38118;DHT22;23928;47.562;7.508;2023-09-19T00:50:35;15.90;99.90
38118;DHT22;23928;47.562;7.508;2023-09-19T00:53:02;15.90;99.90
38118;DHT22;23928;47.562;7.508;2023-09-19T00:55:36;16.00;99.90
38118;DHT22;23928;47.562;7.508;2023-09-19T00:58:08;16.00;99.90
38118;DHT22;23928;47.562;7.508;2023-09-19T01:00:34;15.90;99.90
38118;DHT22;23928;47.562;7.508;2023-09-19T01:03:00;16.00;99.90
38118;DHT22;23928;47.562;7.508;2023-09-19T01:05:27;16.10;99.90
38118;DHT22;23928;47.562;7.508;2023-09-19T01:07:53;16.10;99.90
38118;DHT22;23928;47.562;7.508;2023-09-19T01:10:19;16.10;99.90
38118;DHT22;23928;47.562;7.508;2023-09-19T01:16:29;16.20;99.90
38118;DHT22;23928;47.562;7.508;2023-09-19T01:22:08;16.40;99.90
38118;DHT22;23928;47.562;7.508;2023-09-19T01:25:03;16.50;99.90
38118;DHT22;23928;47.562;7.508;2023-09-19T01:30:10;16.50;99.90
38118;DHT22;23928;47.562;7.508;2023-09-19T01:32:39;16.60;99.90
38118;DHT22;23928;47.562;7.508;2023-09-19T01:35:07;16.50;99.90
38118;DHT22;23928;47.562;7.508;2023-09-19T01:37:37;16.50;99.90
38118;DHT22;23928;47.562;7.508;2023-09-19T01:40:11;16.40;99.90
38118;DHT22;23928;47.562;7.508;2023-09-19T01:42:57;16.60;99.90
38118;DHT22;23928;47.562;7.508;2023-09-19T01:48:33;16.50;99.90
38118;DHT22;23928;47.562;7.508;2023-09-19T01:51:06;16.60;99.90
38118;DHT22;23928;47.562;7.508;2023-09-19T01:56:24;16.40;99.90
38118;DHT22;23928;47.562;7.508;2023-09-19T01:58:53;16.50;99.90
38118;DHT22;23928;47.562;7.508;2023-09-19T02:01:23;16.50;99.90
38118;DHT22;23928;47.562;7.508;2023-09-19T02:03:50;16.50;99.90
38118;DHT22;23928;47.562;7.508;2023-09-19T02:06:16;16.40;99.90
38118;DHT22;23928;47.562;7.508;2023-09-19T02:08:43;16.50;99.90
38118;DHT22;23928;47.562;7.508;2023-09-19T02:11:13;16.50;99.90
38118;DHT22;23928;47.562;7.508;2023-09-19T02:13:39;16.70;99.90
38118;DHT22;23928;47.562;7.508;2023-09-19T02:16:06;16.50;99.90
38118;DHT22;23928;47.562;7.508;2023-09-19T02:18:32;16.60;99.90
38118;DHT22;23928;47.562;7.508;2023-09-19T02:21:01;16.50;99.90
38118;DHT22;23928;47.562;7.508;2023-09-19T02:23:26;16.60;99.90
38118;DHT22;23928;47.562;7.508;2023-09-19T02:25:53;16.60;99.90
38118;DHT22;23928;47.562;7.508;2023-09-19T02:28:19;16.70;99.90
38118;DHT22;23928;47.562;7.508;2023-09-19T02:30:47;16.80;99.90
38118;DHT22;23928;47.562;7.508;2023-09-19T02:33:14;16.80;99.90
38118;DHT22;23928;47.562;7.508;2023-09-19T02:35:40;16.90;99.90
38118;DHT22;23928;47.562;7.508;2023-09-19T02:38:05;16.80;99.90
38118;DHT22;23928;47.562;7.508;2023-09-19T02:40:33;16.80;99.90
38118;DHT22;23928;47.562;7.508;2023-09-19T02:43:01;16.90;99.90
38118;DHT22;23928;47.562;7.508;2023-09-19T02:45:27;16.90;99.90
38118;DHT22;23928;47.562;7.508;2023-09-19T02:47:53;17.00;99.90
38118;DHT22;23928;47.562;7.508;2023-09-19T02:50:20;17.00;99.90
38118;DHT22;23928;47.562;7.508;2023-09-19T02:52:46;17.00;99.90
38118;DHT22;23928;47.562;7.508;2023-09-19T02:55:18;17.00;99.90
38118;DHT22;23928;47.562;7.508;2023-09-19T02:57:48;17.00;99.90
38118;DHT22;23928;47.562;7.508;2023-09-19T03:00:15;16.90;99.90
38118;DHT22;23928;47.562;7.508;2023-09-19T03:02:40;17.00;99.90
38118;DHT22;23928;47.562;7.508;2023-09-19T03:05:07;17.00;99.90
38118;DHT22;23928;47.562;7.508;2023-09-19T03:07:33;16.90;99.90
38118;DHT22;23928;47.562;7.508;2023-09-19T03:09:59;17.00;99.90
38118;DHT22;23928;47.562;7.508;2023-09-19T03:12:26;16.90;99.90
38118;DHT22;23928;47.562;7.508;2023-09-19T03:14:51;16.90;99.90
38118;DHT22;23928;47.562;7.508;2023-09-19T03:17:17;16.90;99.90
38118;DHT22;23928;47.562;7.508;2023-09-19T03:19:45;16.90;99.90
38118;DHT22;23928;47.562;7.508;2023-09-19T03:22:10;16.90;99.90
38118;DHT22;23928;47.562;7.508;2023-09-19T03:24:36;16.80;99.90
38118;DHT22;23928;47.562;7.508;2023-09-19T03:27:03;16.80;99.90
38118;DHT22;23928;47.562;7.508;2023-09-19T03:29:29;16.90;99.90
38118;DHT22;23928;47.562;7.508;2023-09-19T03:31:55;16.90;99.90
38118;DHT22;23928;47.562;7.508;2023-09-19T03:34:21;16.90;99.90
38118;DHT22;23928;47.562;7.508;2023-09-19T03:36:46;16.90;99.90
38118;DHT22;23928;47.562;7.508;2023-09-19T03:39:12;16.80;99.90
38118;DHT22;23928;47.562;7.508;2023-09-19T03:41:40;16.80;99.90
38118;DHT22;23928;47.562;7.508;2023-09-19T03:44:05;16.80;99.90
38118;DHT22;23928;47.562;7.508;2023-09-19T03:46:31;16.90;99.90
38118;DHT22;23928;47.562;7.508;2023-09-19T03:48:58;16.90;99.90
38118;DHT22;23928;47.562;7.508;2023-09-19T03:51:23;16.80;99.90
38118;DHT22;23928;47.562;7.508;2023-09-19T03:53:49;16.90;99.90
38118;DHT22;23928;47.562;7.508;2023-09-19T03:56:15;17.00;99.90
38118;DHT22;23928;47.562;7.508;2023-09-19T03:58:41;17.00;99.90
38118;DHT22;23928;47.562;7.508;2023-09-19T04:01:06;17.00;99.90
38118;DHT22;23928;47.562;7.508;2023-09-19T04:03:35;17.00;99.90
38118;DHT22;23928;47.562;7.508;2023-09-19T04:06:13;17.00;99.90
38118;DHT22;23928;47.562;7.508;2023-09-19T04:08:38;16.90;99.90
38118;DHT22;23928;47.562;7.508;2023-09-19T04:11:04;16.90;99.90
38118;DHT22;23928;47.562;7.508;2023-09-19T04:13:29;17.00;99.90
38118;DHT22;23928;47.562;7.508;2023-09-19T04:15:55;17.00;99.90
38118;DHT22;23928;47.562;7.508;2023-09-19T04:18:22;16.90;99.90
38118;DHT22;23928;47.562;7.508;2023-09-19T04:20:52;16.80;99.90
38118;DHT22;23928;47.562;7.508;2023-09-19T04:23:18;16.90;99.90
38118;DHT22;23928;47.562;7.508;2023-09-19T04:25:47;16.80;99.90
38118;DHT22;23928;47.562;7.508;2023-09-19T04:28:13;16.70;99.90
38118;DHT22;23928;47.562;7.508;2023-09-19T04:30:39;16.70;99.90
38118;DHT22;23928;47.562;7.508;2023-09-19T04:33:07;16.70;99.90
38118;DHT22;23928;47.562;7.508;2023-09-19T04:35:34;16.70;99.90
38118;DHT22;23928;47.562;7.508;2023-09-19T04:38:00;16.70;99.90
38118;DHT22;23928;47.562;7.508;2023-09-19T04:40:25;16.70;99.90
38118;DHT22;23928;47.562;7.508;2023-09-19T04:42:56;16.60;99.90
38118;DHT22;23928;47.562;7.508;2023-09-19T04:45:26;16.50;99.90
38118;DHT22;23928;47.562;7.508;2023-09-19T04:47:52;16.50;99.90
38118;DHT22;23928;47.562;7.508;2023-09-19T04:50:18;16.50;99.90
38118;DHT22;23928;47.562;7.508;2023-09-19T04:52:44;16.50;99.90
38118;DHT22;23928;47.562;7.508;2023-09-19T04:55:14;16.50;99.90
38118;DHT22;23928;47.562;7.508;2023-09-19T04:57:46;16.50;99.90
38118;DHT22;23928;47.562;7.508;2023-09-19T05:00:13;16.40;99.90
38118;DHT22;23928;47.562;7.508;2023-09-19T05:02:40;16.40;99.90
38118;DHT22;23928;47.562;7.508;2023-09-19T05:05:07;16.40;99.90
38118;DHT22;23928;47.562;7.508;2023-09-19T05:07:34;16.50;99.90
38118;DHT22;23928;47.562;7.508;2023-09-19T05:10:00;16.40;99.90
38118;DHT22;23928;47.562;7.508;2023-09-19T05:12:29;16.40;99.90
38118;DHT22;23928;47.562;7.508;2023-09-19T05:14:55;16.50;99.90
38118;DHT22;23928;47.562;7.508;2023-09-19T05:17:20;16.60;99.90
38118;DHT22;23928;47.562;7.508;2023-09-19T05:19:46;16.70;99.90
38118;DHT22;23928;47.562;7.508;2023-09-19T05:22:12;16.70;99.90
38118;DHT22;23928;47.562;7.508;2023-09-19T05:24:38;16.70;99.90
38118;DHT22;23928;47.562;7.508;2023-09-19T05:27:04;16.60;99.90
38118;DHT22;23928;47.562;7.508;2023-09-19T05:29:32;16.70;99.90
38118;DHT22;23928;47.562;7.508;2023-09-19T05:31:59;16.70;99.90
38118;DHT22;23928;47.562;7.508;2023-09-19T05:34:24;16.70;99.90
38118;DHT22;23928;47.562;7.508;2023-09-19T05:36:55;16.70;99.90
38118;DHT22;23928;47.562;7.508;2023-09-19T05:39:21;16.80;99.90
38118;DHT22;23928;47.562;7.508;2023-09-19T05:41:48;16.80;99.90
38118;DHT22;23928;47.562;7.508;2023-09-19T05:44:13;16.90;99.90
38118;DHT22;23928;47.562;7.508;2023-09-19T05:46:41;17.00;99.90
38118;DHT22;23928;47.562;7.508;2023-09-19T05:49:07;17.10;99.90
38118;DHT22;23928;47.562;7.508;2023-09-19T05:51:33;17.00;99.90
38118;DHT22;23928;47.562;7.508;2023-09-19T05:54:00;17.10;99.90
38118;DHT22;23928;47.562;7.508;2023-09-19T05:56:26;17.10;99.90
38118;DHT22;23928;47.562;7.508;2023-09-19T05:58:52;17.10;99.90
38118;DHT22;23928;47.562;7.508;2023-09-19T06:01:18;17.10;99.90
38118;DHT22;23928;47.562;7.508;2023-09-19T06:03:44;17.00;99.90
38118;DHT22;23928;47.562;7.508;2023-09-19T06:06:10;17.00;99.90
38118;DHT22;23928;47.562;7.508;2023-09-19T06:08:35;17.00;99.90
38118;DHT22;23928;47.562;7.508;2023-09-19T06:11:01;17.00;99.90
38118;DHT22;23928;47.562;7.508;2023-09-19T06:13:30;17.00;99.90
38118;DHT22;23928;47.562;7.508;2023-09-19T06:15:59;16.90;99.90
38118;DHT22;23928;47.562;7.508;2023-09-19T06:18:29;16.90;99.90
38118;DHT22;23928;47.562;7.508;2023-09-19T06:20:59;16.90;99.90
38118;DHT22;23928;47.562;7.508;2023-09-19T06:23:25;17.00;99.90
38118;DHT22;23928;47.562;7.508;2023-09-19T06:25:52;17.00;99.90
38118;DHT22;23928;47.562;7.508;2023-09-19T06:28:19;17.20;99.90
38118;DHT22;23928;47.562;7.508;2023-09-19T06:30:49;17.20;99.90
38118;DHT22;23928;47.562;7.508;2023-09-19T06:33:14;17.10;99.90
38118;DHT22;23928;47.562;7.508;2023-09-19T06:35:40;17.10;99.90
38118;DHT22;23928;47.562;7.508;2023-09-19T06:38:07;17.20;99.90
38118;DHT22;23928;47.562;7.508;2023-09-19T06:40:34;17.20;99.90
38118;DHT22;23928;47.562;7.508;2023-09-19T06:43:00;17.40;99.90
38118;DHT22;23928;47.562;7.508;2023-09-19T06:45:27;17.50;99.90
38118;DHT22;23928;47.562;7.508;2023-09-19T06:47:53;17.70;99.90
38118;DHT22;23928;47.562;7.508;2023-09-19T06:50:23;17.70;99.90
38118;DHT22;23928;47.562;7.508;2023-09-19T06:52:50;17.80;99.90
38118;DHT22;23928;47.562;7.508;2023-09-19T06:55:17;17.80;99.90
38118;DHT22;23928;47.562;7.508;2023-09-19T06:57:48;17.70;99.90
38118;DHT22;23928;47.562;7.508;2023-09-19T07:00:14;17.70;99.90
38118;DHT22;23928;47.562;7.508;2023-09-19T07:02:59;17.70;99.90
38118;DHT22;23928;47.562;7.508;2023-09-19T07:05:30;17.70;99.90
38118;DHT22;23928;47.562;7.508;2023-09-19T07:07:57;17.60;99.90
38118;DHT22;23928;47.562;7.508;2023-09-19T07:10:27;17.50;99.90
38118;DHT22;23928;47.562;7.508;2023-09-19T07:13:07;17.60;99.90
38118;DHT22;23928;47.562;7.508;2023-09-19T07:15:37;17.60;99.90
38118;DHT22;23928;47.562;7.508;2023-09-19T07:18:06;17.70;99.90
38118;DHT22;23928;47.562;7.508;2023-09-19T07:20:32;17.70;99.90
38118;DHT22;23928;47.562;7.508;2023-09-19T07:22:58;17.80;99.90
38118;DHT22;23928;47.562;7.508;2023-09-19T07:25:28;18.00;99.90
38118;DHT22;23928;47.562;7.508;2023-09-19T07:27:57;17.90;99.90
38118;DHT22;23928;47.562;7.508;2023-09-19T07:30:26;18.00;99.90
38118;DHT22;23928;47.562;7.508;2023-09-19T07:32:52;18.10;99.90
38118;DHT22;23928;47.562;7.508;2023-09-19T07:35:18;18.30;99.90
38118;DHT22;23928;47.562;7.508;2023-09-19T07:37:47;18.30;99.90
38118;DHT22;23928;47.562;7.508;2023-09-19T07:40:15;18.20;99.90
38118;DHT22;23928;47.562;7.508;2023-09-19T07:42:41;18.10;99.90
38118;DHT22;23928;47.562;7.508;2023-09-19T07:45:09;18.10;99.90
38118;DHT22;23928;47.562;7.508;2023-09-19T07:47:34;18.20;99.90
38118;DHT22;23928;47.562;7.508;2023-09-19T07:50:01;18.30;99.90
38118;DHT22;23928;47.562;7.508;2023-09-19T07:52:28;18.40;99.90
38118;DHT22;23928;47.562;7.508;2023-09-19T07:54:54;18.70;99.90
38118;DHT22;23928;47.562;7.508;2023-09-19T07:57:20;18.80;99.90
38118;DHT22;23928;47.562;7.508;2023-09-19T07:59:46;18.80;99.90
38118;DHT22;23928;47.562;7.508;2023-09-19T08:02:12;18.80;99.90
38118;DHT22;23928;47.562;7.508;2023-09-19T08:04:44;18.80;99.90
38118;DHT22;23928;47.562;7.508;2023-09-19T08:07:14;18.80;99.90
38118;DHT22;23928;47.562;7.508;2023-09-19T08:09:40;19.00;99.90
38118;DHT22;23928;47.562;7.508;2023-09-19T08:12:07;19.20;99.90
38118;DHT22;23928;47.562;7.508;2023-09-19T08:14:36;18.70;99.90
38118;DHT22;23928;47.562;7.508;2023-09-19T08:17:02;18.50;99.90
38118;DHT22;23928;47.562;7.508;2023-09-19T08:19:28;18.60;99.90
38118;DHT22;23928;47.562;7.508;2023-09-19T08:21:55;18.70;99.90
38118;DHT22;23928;47.562;7.508;2023-09-19T08:24:27;18.60;99.90
38118;DHT22;23928;47.562;7.508;2023-09-19T08:26:57;18.60;99.90
38118;DHT22;23928;47.562;7.508;2023-09-19T08:29:24;18.90;99.90
38118;DHT22;23928;47.562;7.508;2023-09-19T08:31:56;18.90;99.90
38118;DHT22;23928;47.562;7.508;2023-09-19T08:34:23;18.90;99.90
38118;DHT22;23928;47.562;7.508;2023-09-19T08:36:53;19.00;99.90
38118;DHT22;23928;47.562;7.508;2023-09-19T08:39:23;19.10;99.90
38118;DHT22;23928;47.562;7.508;2023-09-19T08:41:48;19.00;99.90
38118;DHT22;23928;47.562;7.508;2023-09-19T08:44:15;19.20;99.90
38118;DHT22;23928;47.562;7.508;2023-09-19T08:46:41;19.40;99.90
38118;DHT22;23928;47.562;7.508;2023-09-19T08:49:28;19.30;99.90
38118;DHT22;23928;47.562;7.508;2023-09-19T08:52:07;19.70;99.90
38118;DHT22;23928;47.562;7.508;2023-09-19T08:54:37;19.80;99.90
38118;DHT22;23928;47.562;7.508;2023-09-19T08:57:07;19.70;99.90
38118;DHT22;23928;47.562;7.508;2023-09-19T08:59:38;19.80;99.90
38118;DHT22;23928;47.562;7.508;2023-09-19T09:02:11;19.80;99.90
38118;DHT22;23928;47.562;7.508;2023-09-19T09:04:43;19.90;99.90
38118;DHT22;23928;47.562;7.508;2023-09-19T09:07:12;20.00;99.90
38118;DHT22;23928;47.562;7.508;2023-09-19T09:09:39;20.30;99.90
38118;DHT22;23928;47.562;7.508;2023-09-19T09:12:12;20.40;99.90
38118;DHT22;23928;47.562;7.508;2023-09-19T09:14:39;20.40;99.90
38118;DHT22;23928;47.562;7.508;2023-09-19T09:17:05;20.60;99.90
38118;DHT22;23928;47.562;7.508;2023-09-19T09:19:31;20.60;99.90
38118;DHT22;23928;47.562;7.508;2023-09-19T09:22:17;20.40;99.90
38118;DHT22;23928;47.562;7.508;2023-09-19T09:25:13;21.00;99.90
38118;DHT22;23928;47.562;7.508;2023-09-19T09:27:40;20.70;99.90
38118;DHT22;23928;47.562;7.508;2023-09-19T09:30:06;20.50;99.90
38118;DHT22;23928;47.562;7.508;2023-09-19T09:32:32;20.50;99.90
38118;DHT22;23928;47.562;7.508;2023-09-19T09:35:02;20.20;99.90
38118;DHT22;23928;47.562;7.508;2023-09-19T09:37:35;20.20;99.90
38118;DHT22;23928;47.562;7.508;2023-09-19T09:40:04;20.50;99.90
38118;DHT22;23928;47.562;7.508;2023-09-19T09:42:56;20.70;99.90
38118;DHT22;23928;47.562;7.508;2023-09-19T09:45:25;20.90;99.90
38118;DHT22;23928;47.562;7.508;2023-09-19T09:48:03;21.40;99.90
38118;DHT22;23928;47.562;7.508;2023-09-19T09:50:33;21.40;99.90
38118;DHT22;23928;47.562;7.508;2023-09-19T09:53:22;21.80;99.90
38118;DHT22;23928;47.562;7.508;2023-09-19T09:56:04;22.20;99.90
38118;DHT22;23928;47.562;7.508;2023-09-19T09:58:50;21.50;99.90
38118;DHT22;23928;47.562;7.508;2023-09-19T10:01:21;20.80;99.90
38118;DHT22;23928;47.562;7.508;2023-09-19T10:03:57;20.90;99.90
38118;DHT22;23928;47.562;7.508;2023-09-19T10:06:23;20.70;99.90
38118;DHT22;23928;47.562;7.508;2023-09-19T10:09:08;20.60;99.90
38118;DHT22;23928;47.562;7.508;2023-09-19T10:11:42;20.50;99.90
38118;DHT22;23928;47.562;7.508;2023-09-19T10:14:10;20.20;99.90
38118;DHT22;23928;47.562;7.508;2023-09-19T10:16:45;20.20;99.90
38118;DHT22;23928;47.562;7.508;2023-09-19T10:19:16;20.10;99.90
38118;DHT22;23928;47.562;7.508;2023-09-19T10:21:42;20.40;99.90
38118;DHT22;23928;47.562;7.508;2023-09-19T10:24:09;20.60;99.90
38118;DHT22;23928;47.562;7.508;2023-09-19T10:26:36;20.70;99.90
38118;DHT22;23928;47.562;7.508;2023-09-19T10:29:03;21.00;99.90
38118;DHT22;23928;47.562;7.508;2023-09-19T10:31:32;21.20;99.90
38118;DHT22;23928;47.562;7.508;2023-09-19T10:34:03;21.40;99.90
38118;DHT22;23928;47.562;7.508;2023-09-19T10:36:33;21.50;99.90
38118;DHT22;23928;47.562;7.508;2023-09-19T10:39:02;21.60;99.90
38118;DHT22;23928;47.562;7.508;2023-09-19T10:41:32;21.70;99.90
38118;DHT22;23928;47.562;7.508;2023-09-19T10:44:03;21.40;99.90
38118;DHT22;23928;47.562;7.508;2023-09-19T10:46:31;21.50;99.90
38118;DHT22;23928;47.562;7.508;2023-09-19T10:49:01;21.40;99.90
38118;DHT22;23928;47.562;7.508;2023-09-19T10:51:33;21.20;99.90
38118;DHT22;23928;47.562;7.508;2023-09-19T10:54:12;21.40;99.90
38118;DHT22;23928;47.562;7.508;2023-09-19T10:56:50;21.40;99.90
38118;DHT22;23928;47.562;7.508;2023-09-19T10:59:21;21.40;99.90
38118;DHT22;23928;47.562;7.508;2023-09-19T11:01:49;21.50;99.90
38118;DHT22;23928;47.562;7.508;2023-09-19T11:04:32;21.60;99.90
38118;DHT22;23928;47.562;7.508;2023-09-19T11:07:04;21.60;99.90
38118;DHT22;23928;47.562;7.508;2023-09-19T11:26:45;22.00;99.90
38118;DHT22;23928;47.562;7.508;2023-09-19T11:29:30;22.10;99.90
38118;DHT22;23928;47.562;7.508;2023-09-19T11:31:56;22.10;99.90
38118;DHT22;23928;47.562;7.508;2023-09-19T11:39:40;22.00;99.90
38118;DHT22;23928;47.562;7.508;2023-09-19T11:42:41;22.30;99.90
38118;DHT22;23928;47.562;7.508;2023-09-19T11:45:06;22.50;99.90
38118;DHT22;23928;47.562;7.508;2023-09-19T11:47:32;22.70;99.90
38118;DHT22;23928;47.562;7.508;2023-09-19T11:50:01;23.10;99.90
38118;DHT22;23928;47.562;7.508;2023-09-19T11:52:28;23.30;99.90
38118;DHT22;23928;47.562;7.508;2023-09-19T11:55:01;23.30;99.90
38118;DHT22;23928;47.562;7.508;2023-09-19T11:57:28;23.20;99.90
38118;DHT22;23928;47.562;7.508;2023-09-19T11:59:55;23.10;99.90
38118;DHT22;23928;47.562;7.508;2023-09-19T12:02:54;23.10;99.90
38118;DHT22;23928;47.562;7.508;2023-09-19T12:05:29;22.50;99.90
38118;DHT22;23928;47.562;7.508;2023-09-19T12:07:54;21.90;99.90
38118;DHT22;23928;47.562;7.508;2023-09-19T12:10:20;22.00;99.90
38118;DHT22;23928;47.562;7.508;2023-09-19T12:12:48;22.40;99.90
38118;DHT22;23928;47.562;7.508;2023-09-19T12:15:14;22.70;99.90
38118;DHT22;23928;47.562;7.508;2023-09-19T12:17:41;23.10;99.90
38118;DHT22;23928;47.562;7.508;2023-09-19T12:20:08;23.30;99.90
38118;DHT22;23928;47.562;7.508;2023-09-19T12:22:45;23.60;99.90
38118;DHT22;23928;47.562;7.508;2023-09-19T12:25:12;23.90;99.90
38118;DHT22;23928;47.562;7.508;2023-09-19T12:27:45;23.50;99.90
38118;DHT22;23928;47.562;7.508;2023-09-19T12:30:18;23.00;99.90
38118;DHT22;23928;47.562;7.508;2023-09-19T12:32:44;23.00;99.90
38118;DHT22;23928;47.562;7.508;2023-09-19T12:35:27;23.10;99.90
38118;DHT22;23928;47.562;7.508;2023-09-19T12:37:53;22.40;99.90
38118;DHT22;23928;47.562;7.508;2023-09-19T12:40:21;22.00;99.90
38118;DHT22;23928;47.562;7.508;2023-09-19T12:42:48;21.80;99.90
38118;DHT22;23928;47.562;7.508;2023-09-19T12:45:15;21.80;99.90
38118;DHT22;23928;47.562;7.508;2023-09-19T12:53:40;21.60;99.90
38118;DHT22;23928;47.562;7.508;2023-09-19T12:56:08;21.60;99.90
38118;DHT22;23928;47.562;7.508;2023-09-19T12:58:57;21.60;99.90
38118;DHT22;23928;47.562;7.508;2023-09-19T13:01:28;21.60;99.90
38118;DHT22;23928;47.562;7.508;2023-09-19T13:04:17;21.70;99.90
38118;DHT22;23928;47.562;7.508;2023-09-19T13:06:52;22.30;99.90
38118;DHT22;23928;47.562;7.508;2023-09-19T13:09:22;22.80;99.90
38118;DHT22;23928;47.562;7.508;2023-09-19T13:11:50;23.00;99.90
38118;DHT22;23928;47.562;7.508;2023-09-19T13:16:59;22.60;99.90
38118;DHT22;23928;47.562;7.508;2023-09-19T13:22:35;22.70;99.90
38118;DHT22;23928;47.562;7.508;2023-09-19T13:24:50;23.30;99.90
38118;DHT22;23928;47.562;7.508;2023-09-19T13:27:17;23.60;99.90
38118;DHT22;23928;47.562;7.508;2023-09-19T13:29:42;23.70;99.90
38118;DHT22;23928;47.562;7.508;2023-09-19T13:32:08;23.60;99.90
38118;DHT22;23928;47.562;7.508;2023-09-19T13:34:36;23.60;99.90
38118;DHT22;23928;47.562;7.508;2023-09-19T13:37:03;23.50;99.90
38118;DHT22;23928;47.562;7.508;2023-09-19T13:39:30;23.50;99.90
38118;DHT22;23928;47.562;7.508;2023-09-19T13:41:55;23.50;99.90
38118;DHT22;23928;47.562;7.508;2023-09-19T13:44:21;23.60;99.90
38118;DHT22;23928;47.562;7.508;2023-09-19T13:46:46;23.60;99.90
38118;DHT22;23928;47.562;7.508;2023-09-19T13:49:12;23.60;99.90
38118;DHT22;23928;47.562;7.508;2023-09-19T13:51:38;23.70;99.90
38118;DHT22;23928;47.562;7.508;2023-09-19T13:54:04;23.30;99.90
38118;DHT22;23928;47.562;7.508;2023-09-19T13:56:29;23.20;99.90
38118;DHT22;23928;47.562;7.508;2023-09-19T13:58:56;23.20;99.90
38118;DHT22;23928;47.562;7.508;2023-09-19T14:01:22;23.20;99.90
38118;DHT22;23928;47.562;7.508;2023-09-19T14:03:48;23.20;99.90
38118;DHT22;23928;47.562;7.508;2023-09-19T14:06:15;22.80;99.90
38118;DHT22;23928;47.562;7.508;2023-09-19T14:08:41;22.70;99.90
38118;DHT22;23928;47.562;7.508;2023-09-19T14:11:08;22.90;99.90
38118;DHT22;23928;47.562;7.508;2023-09-19T14:13:34;22.90;99.90
38118;DHT22;23928;47.562;7.508;2023-09-19T14:16:04;22.80;99.90
38118;DHT22;23928;47.562;7.508;2023-09-19T14:18:30;22.90;99.90
38118;DHT22;23928;47.562;7.508;2023-09-19T14:20:56;22.90;99.90
38118;DHT22;23928;47.562;7.508;2023-09-19T14:23:22;22.90;99.90
38118;DHT22;23928;47.562;7.508;2023-09-19T14:25:50;23.00;99.90
38118;DHT22;23928;47.562;7.508;2023-09-19T14:28:15;23.00;99.90
38118;DHT22;23928;47.562;7.508;2023-09-19T14:30:41;22.80;99.90
38118;DHT22;23928;47.562;7.508;2023-09-19T14:33:06;22.70;99.90
38118;DHT22;23928;47.562;7.508;2023-09-19T14:35:33;22.70;99.90
38118;DHT22;23928;47.562;7.508;2023-09-19T14:37:58;22.60;99.90
38118;DHT22;23928;47.562;7.508;2023-09-19T14:40:24;22.50;99.90
38118;DHT22;23928;47.562;7.508;2023-09-19T14:42:51;22.50;99.90
38118;DHT22;23928;47.562;7.508;2023-09-19T14:45:16;22.50;99.90
38118;DHT22;23928;47.562;7.508;2023-09-19T14:47:45;22.60;99.90
38118;DHT22;23928;47.562;7.508;2023-09-19T14:50:11;22.50;99.90
38118;DHT22;23928;47.562;7.508;2023-09-19T14:52:38;22.50;99.90
38118;DHT22;23928;47.562;7.508;2023-09-19T14:55:06;22.50;99.90
38118;DHT22;23928;47.562;7.508;2023-09-19T14:57:31;22.40;99.90
38118;DHT22;23928;47.562;7.508;2023-09-19T14:59:58;22.30;99.90
38118;DHT22;23928;47.562;7.508;2023-09-19T15:02:24;22.30;99.90
38118;DHT22;23928;47.562;7.508;2023-09-19T15:04:52;22.30;99.90
38118;DHT22;23928;47.562;7.508;2023-09-19T15:07:18;22.30;99.90
38118;DHT22;23928;47.562;7.508;2023-09-19T15:09:43;22.30;99.90
38118;DHT22;23928;47.562;7.508;2023-09-19T15:12:09;22.20;99.90
38118;DHT22;23928;47.562;7.508;2023-09-19T15:14:40;22.30;99.90
38118;DHT22;23928;47.562;7.508;2023-09-19T15:17:06;22.30;99.90
38118;DHT22;23928;47.562;7.508;2023-09-19T15:19:31;22.30;99.90
38118;DHT22;23928;47.562;7.508;2023-09-19T15:21:57;22.20;99.90
38118;DHT22;23928;47.562;7.508;2023-09-19T15:24:23;22.10;99.90
38118;DHT22;23928;47.562;7.508;2023-09-19T15:26:52;22.10;99.90
38118;DHT22;23928;47.562;7.508;2023-09-19T15:29:17;21.90;99.90
38118;DHT22;23928;47.562;7.508;2023-09-19T15:31:43;22.00;99.90
38118;DHT22;23928;47.562;7.508;2023-09-19T15:34:09;22.00;99.90
38118;DHT22;23928;47.562;7.508;2023-09-19T15:36:34;22.00;99.90
38118;DHT22;23928;47.562;7.508;2023-09-19T15:39:02;22.00;99.90
38118;DHT22;23928;47.562;7.508;2023-09-19T15:41:37;21.90;99.90
38118;DHT22;23928;47.562;7.508;2023-09-19T15:44:03;21.80;99.90
38118;DHT22;23928;47.562;7.508;2023-09-19T15:46:30;21.60;99.90
38118;DHT22;23928;47.562;7.508;2023-09-19T15:48:56;21.50;99.90
38118;DHT22;23928;47.562;7.508;2023-09-19T15:51:23;21.40;99.90
38118;DHT22;23928;47.562;7.508;2023-09-19T15:53:50;21.50;99.90
38118;DHT22;23928;47.562;7.508;2023-09-19T15:56:17;21.50;99.90
38118;DHT22;23928;47.562;7.508;2023-09-19T15:58:46;21.50;99.90
38118;DHT22;23928;47.562;7.508;2023-09-19T16:01:13;21.40;99.90
38118;DHT22;23928;47.562;7.508;2023-09-19T16:03:42;21.30;99.90
38118;DHT22;23928;47.562;7.508;2023-09-19T16:06:19;21.30;99.90
38118;DHT22;23928;47.562;7.508;2023-09-19T16:08:47;21.10;99.90
38118;DHT22;23928;47.562;7.508;2023-09-19T16:11:13;21.20;99.90
38118;DHT22;23928;47.562;7.508;2023-09-19T16:13:40;21.00;99.90
38118;DHT22;23928;47.562;7.508;2023-09-19T16:16:07;21.10;99.90
38118;DHT22;23928;47.562;7.508;2023-09-19T16:18:33;21.00;99.90
38118;DHT22;23928;47.562;7.508;2023-09-19T16:21:06;21.10;99.90
38118;DHT22;23928;47.562;7.508;2023-09-19T16:23:34;20.90;99.90
38118;DHT22;23928;47.562;7.508;2023-09-19T16:26:09;20.90;99.90
38118;DHT22;23928;47.562;7.508;2023-09-19T16:28:36;20.90;99.90